sensor_id;sensor_type;location;lat;lon;timestamp;P1;durP1;ratioP1;P2;durP2;ratioP2
20369;SDS011;10344;47.592;9.600;2023-02-01T00:25:43;6.17;;;4.60;;
20369;SDS011;10344;47.592;9.600;2023-02-01T00:28:11;4.77;;;4.17;;
20369;SDS011;10344;47.592;9.600;2023-02-01T00:30:37;5.25;;;4.45;;
20369;SDS011;10344;47.592;9.600;2023-02-01T00:33:03;5.50;;;4.40;;
20369;SDS011;10344;47.592;9.600;2023-02-01T00:35:29;4.95;;;4.43;;
20369;SDS011;10344;47.592;9.600;2023-02-01T00:37:55;4.87;;;3.97;;
20369;SDS011;10344;47.592;9.600;2023-02-01T00:40:23;5.40;;;4.72;;
20369;SDS011;10344;47.592;9.600;2023-02-01T00:42:49;9.13;;;5.00;;
20369;SDS011;10344;47.592;9.600;2023-02-01T00:45:14;5.03;;;4.50;;
20369;SDS011;10344;47.592;9.600;2023-02-01T03:12:04;6.00;;;4.63;;
20369;SDS011;10344;47.592;9.600;2023-02-01T03:14:56;6.82;;;4.60;;
20369;SDS011;10344;47.592;9.600;2023-02-01T03:17:27;4.97;;;3.90;;
20369;SDS011;10344;47.592;9.600;2023-02-01T03:19:58;5.00;;;3.83;;
20369;SDS011;10344;47.592;9.600;2023-02-01T03:22:27;6.72;;;4.35;;
20369;SDS011;10344;47.592;9.600;2023-02-01T03:25:02;7.00;;;4.30;;
20369;SDS011;10344;47.592;9.600;2023-02-01T03:27:37;4.45;;;3.83;;
20369;SDS011;10344;47.592;9.600;2023-02-01T03:32:49;6.28;;;4.35;;
20369;SDS011;10344;47.592;9.600;2023-02-01T03:35:38;5.20;;;4.05;;
20369;SDS011;10344;47.592;9.600;2023-02-01T04:08:14;4.40;;;4.00;;
20369;SDS011;10344;47.592;9.600;2023-02-01T07:41:01;6.68;;;5.10;;
20369;SDS011;10344;47.592;9.600;2023-02-01T07:43:33;5.53;;;4.60;;
20369;SDS011;10344;47.592;9.600;2023-02-01T07:46:02;6.95;;;5.18;;
20369;SDS011;10344;47.592;9.600;2023-02-01T07:56:08;5.63;;;4.78;;
20369;SDS011;10344;47.592;9.600;2023-02-01T07:58:43;6.78;;;4.82;;
20369;SDS011;10344;47.592;9.600;2023-02-01T08:01:16;4.88;;;4.25;;
20369;SDS011;10344;47.592;9.600;2023-02-01T08:03:49;5.30;;;4.32;;
20369;SDS011;10344;47.592;9.600;2023-02-01T08:06:19;5.63;;;4.40;;
20369;SDS011;10344;47.592;9.600;2023-02-01T08:28:50;4.80;;;3.60;;
20369;SDS011;10344;47.592;9.600;2023-02-01T08:31:19;5.85;;;4.30;;
20369;SDS011;10344;47.592;9.600;2023-02-01T08:33:56;5.72;;;3.88;;
20369;SDS011;10344;47.592;9.600;2023-02-01T08:36:24;5.70;;;3.80;;
20369;SDS011;10344;47.592;9.600;2023-02-01T08:38:51;5.07;;;3.80;;
20369;SDS011;10344;47.592;9.600;2023-02-01T08:41:20;6.13;;;4.20;;
20369;SDS011;10344;47.592;9.600;2023-02-01T08:43:50;6.63;;;4.25;;
20369;SDS011;10344;47.592;9.600;2023-02-01T08:46:16;5.70;;;4.30;;
20369;SDS011;10344;47.592;9.600;2023-02-01T08:48:42;5.10;;;4.40;;
20369;SDS011;10344;47.592;9.600;2023-02-01T08:51:09;5.25;;;4.00;;
20369;SDS011;10344;47.592;9.600;2023-02-01T08:53:37;6.00;;;4.15;;
20369;SDS011;10344;47.592;9.600;2023-02-01T08:56:06;5.00;;;3.80;;
20369;SDS011;10344;47.592;9.600;2023-02-01T08:58:32;5.80;;;3.97;;
20369;SDS011;10344;47.592;9.600;2023-02-01T09:01:08;4.60;;;3.78;;
20369;SDS011;10344;47.592;9.600;2023-02-01T09:03:37;5.10;;;3.73;;
20369;SDS011;10344;47.592;9.600;2023-02-01T09:06:07;5.18;;;3.83;;
20369;SDS011;10344;47.592;9.600;2023-02-01T09:08:37;4.80;;;3.67;;
20369;SDS011;10344;47.592;9.600;2023-02-01T09:11:05;3.90;;;3.20;;
20369;SDS011;10344;47.592;9.600;2023-02-01T09:13:32;5.10;;;3.63;;
20369;SDS011;10344;47.592;9.600;2023-02-01T09:16:01;4.97;;;3.60;;
20369;SDS011;10344;47.592;9.600;2023-02-01T09:18:27;4.43;;;3.22;;
20369;SDS011;10344;47.592;9.600;2023-02-01T09:20:53;3.87;;;3.30;;
20369;SDS011;10344;47.592;9.600;2023-02-01T09:23:19;4.30;;;3.50;;
20369;SDS011;10344;47.592;9.600;2023-02-01T09:25:47;4.10;;;3.33;;
20369;SDS011;10344;47.592;9.600;2023-02-01T09:28:16;3.83;;;3.13;;
20369;SDS011;10344;47.592;9.600;2023-02-01T09:30:42;4.32;;;3.20;;
20369;SDS011;10344;47.592;9.600;2023-02-01T09:33:08;4.00;;;2.90;;
20369;SDS011;10344;47.592;9.600;2023-02-01T09:35:33;3.40;;;2.92;;
20369;SDS011;10344;47.592;9.600;2023-02-01T09:37:59;3.80;;;3.00;;
20369;SDS011;10344;47.592;9.600;2023-02-01T09:40:24;4.70;;;3.23;;
20369;SDS011;10344;47.592;9.600;2023-02-01T09:45:24;4.10;;;2.90;;
20369;SDS011;10344;47.592;9.600;2023-02-01T09:47:55;5.13;;;3.22;;
20369;SDS011;10344;47.592;9.600;2023-02-01T09:50:33;4.28;;;3.03;;
20369;SDS011;10344;47.592;9.600;2023-02-01T09:53:05;4.07;;;3.05;;
20369;SDS011;10344;47.592;9.600;2023-02-01T09:55:36;3.42;;;3.05;;
20369;SDS011;10344;47.592;9.600;2023-02-01T09:58:07;3.78;;;2.80;;
20369;SDS011;10344;47.592;9.600;2023-02-01T10:00:58;4.13;;;3.45;;
20369;SDS011;10344;47.592;9.600;2023-02-01T10:03:33;3.40;;;2.78;;
20369;SDS011;10344;47.592;9.600;2023-02-01T10:08:41;4.22;;;3.15;;
20369;SDS011;10344;47.592;9.600;2023-02-01T10:17:14;4.13;;;3.40;;
20369;SDS011;10344;47.592;9.600;2023-02-01T10:27:49;3.87;;;2.80;;
20369;SDS011;10344;47.592;9.600;2023-02-01T10:30:22;3.97;;;2.60;;
20369;SDS011;10344;47.592;9.600;2023-02-01T10:32:52;4.80;;;2.90;;
20369;SDS011;10344;47.592;9.600;2023-02-01T10:35:26;4.10;;;3.00;;
20369;SDS011;10344;47.592;9.600;2023-02-01T10:37:58;3.83;;;2.60;;
20369;SDS011;10344;47.592;9.600;2023-02-01T10:40:27;3.75;;;2.85;;
20369;SDS011;10344;47.592;9.600;2023-02-01T10:42:54;4.20;;;2.80;;
20369;SDS011;10344;47.592;9.600;2023-02-01T10:45:26;2.97;;;2.67;;
20369;SDS011;10344;47.592;9.600;2023-02-01T10:47:54;3.20;;;2.67;;
20369;SDS011;10344;47.592;9.600;2023-02-01T10:50:38;3.53;;;3.00;;
20369;SDS011;10344;47.592;9.600;2023-02-01T10:56:09;4.47;;;2.58;;
20369;SDS011;10344;47.592;9.600;2023-02-01T10:58:43;3.05;;;2.40;;
20369;SDS011;10344;47.592;9.600;2023-02-01T11:33:31;3.30;;;2.70;;
20369;SDS011;10344;47.592;9.600;2023-02-01T11:36:01;4.82;;;2.70;;
20369;SDS011;10344;47.592;9.600;2023-02-01T11:43:38;3.30;;;2.20;;
20369;SDS011;10344;47.592;9.600;2023-02-01T11:46:18;2.53;;;2.17;;
20369;SDS011;10344;47.592;9.600;2023-02-01T11:48:49;2.67;;;1.90;;
20369;SDS011;10344;47.592;9.600;2023-02-01T11:51:35;2.90;;;2.10;;
20369;SDS011;10344;47.592;9.600;2023-02-01T11:54:19;2.25;;;2.03;;
20369;SDS011;10344;47.592;9.600;2023-02-01T12:13:29;2.60;;;1.80;;
20369;SDS011;10344;47.592;9.600;2023-02-01T12:24:02;2.97;;;2.15;;
20369;SDS011;10344;47.592;9.600;2023-02-01T12:31:58;3.00;;;2.10;;
20369;SDS011;10344;47.592;9.600;2023-02-01T12:34:44;3.50;;;2.22;;
20369;SDS011;10344;47.592;9.600;2023-02-01T12:41:01;2.65;;;2.00;;
20369;SDS011;10344;47.592;9.600;2023-02-01T12:46:21;3.45;;;2.05;;
20369;SDS011;10344;47.592;9.600;2023-02-01T12:49:52;3.15;;;2.45;;
20369;SDS011;10344;47.592;9.600;2023-02-01T12:51:50;3.40;;;2.25;;
20369;SDS011;10344;47.592;9.600;2023-02-01T12:54:24;3.95;;;2.22;;
20369;SDS011;10344;47.592;9.600;2023-02-01T12:57:21;5.28;;;2.80;;
20369;SDS011;10344;47.592;9.600;2023-02-01T12:59:56;4.40;;;2.50;;
20369;SDS011;10344;47.592;9.600;2023-02-01T13:02:42;4.05;;;2.35;;
20369;SDS011;10344;47.592;9.600;2023-02-01T13:05:19;4.45;;;2.40;;
20369;SDS011;10344;47.592;9.600;2023-02-01T13:10:38;4.05;;;1.95;;
20369;SDS011;10344;47.592;9.600;2023-02-01T13:13:11;2.70;;;2.20;;
20369;SDS011;10344;47.592;9.600;2023-02-01T13:15:44;2.90;;;1.93;;
20369;SDS011;10344;47.592;9.600;2023-02-01T13:18:20;3.92;;;1.90;;
20369;SDS011;10344;47.592;9.600;2023-02-01T13:20:47;2.67;;;2.00;;
20369;SDS011;10344;47.592;9.600;2023-02-01T13:23:35;2.67;;;1.83;;
20369;SDS011;10344;47.592;9.600;2023-02-01T13:26:03;2.93;;;1.90;;
20369;SDS011;10344;47.592;9.600;2023-02-01T13:40:40;2.50;;;1.83;;
20369;SDS011;10344;47.592;9.600;2023-02-01T13:43:14;3.25;;;1.90;;
20369;SDS011;10344;47.592;9.600;2023-02-01T13:45:48;3.20;;;1.90;;
20369;SDS011;10344;47.592;9.600;2023-02-01T13:48:29;3.60;;;2.13;;
20369;SDS011;10344;47.592;9.600;2023-02-01T13:51:06;4.05;;;2.20;;
20369;SDS011;10344;47.592;9.600;2023-02-01T13:53:33;6.03;;;2.33;;
20369;SDS011;10344;47.592;9.600;2023-02-01T13:58:48;4.68;;;2.40;;
20369;SDS011;10344;47.592;9.600;2023-02-01T14:11:46;3.33;;;2.63;;
20369;SDS011;10344;47.592;9.600;2023-02-01T14:16:42;5.10;;;2.72;;
20369;SDS011;10344;47.592;9.600;2023-02-01T14:19:29;4.88;;;2.83;;
20369;SDS011;10344;47.592;9.600;2023-02-01T14:21:57;6.50;;;2.80;;
20369;SDS011;10344;47.592;9.600;2023-02-01T14:24:52;4.70;;;2.58;;
20369;SDS011;10344;47.592;9.600;2023-02-01T14:27:21;3.67;;;2.70;;
20369;SDS011;10344;47.592;9.600;2023-02-01T14:29:51;5.23;;;2.40;;
20369;SDS011;10344;47.592;9.600;2023-02-01T14:32:34;5.53;;;2.80;;
20369;SDS011;10344;47.592;9.600;2023-02-01T14:35:06;4.13;;;2.30;;
20369;SDS011;10344;47.592;9.600;2023-02-01T14:37:44;5.35;;;2.15;;
20369;SDS011;10344;47.592;9.600;2023-02-01T16:20:00;6.55;;;2.75;;
20369;SDS011;10344;47.592;9.600;2023-02-01T19:25:48;5.18;;;2.30;;
20369;SDS011;10344;47.592;9.600;2023-02-01T19:28:28;6.13;;;2.07;;
20369;SDS011;10344;47.592;9.600;2023-02-01T19:31:02;6.18;;;2.10;;
20369;SDS011;10344;47.592;9.600;2023-02-01T19:33:34;6.68;;;2.10;;
20369;SDS011;10344;47.592;9.600;2023-02-01T19:36:13;6.93;;;2.30;;
20369;SDS011;10344;47.592;9.600;2023-02-01T19:38:40;4.30;;;1.90;;
20369;SDS011;10344;47.592;9.600;2023-02-01T19:41:12;5.75;;;1.88;;
20369;SDS011;10344;47.592;9.600;2023-02-01T19:43:46;3.22;;;2.00;;
20369;SDS011;10344;47.592;9.600;2023-02-01T19:46:15;4.75;;;2.05;;
20369;SDS011;10344;47.592;9.600;2023-02-01T19:48:47;4.40;;;2.00;;
20369;SDS011;10344;47.592;9.600;2023-02-01T19:51:20;5.35;;;1.90;;
20369;SDS011;10344;47.592;9.600;2023-02-01T19:53:55;4.57;;;1.90;;
20369;SDS011;10344;47.592;9.600;2023-02-01T19:56:36;3.45;;;1.90;;
20369;SDS011;10344;47.592;9.600;2023-02-01T19:59:07;6.22;;;2.10;;
20369;SDS011;10344;47.592;9.600;2023-02-01T20:01:39;5.15;;;2.00;;
